N5LOW Weather Reports


time (UTC)temp
F
wind
direction
speed
knots
gust
knots
rain 1hr
in
rain 24hr
in
rain mn
in
humidity
%
barometer
mb
20211025033013 0 114 0.0 0.0 0.00 0.00 0.00 1012.7
20211025032501 0 161 1.7 2.6 0.00 0.00 0.00 1012.6
20211025032002 0 175 0.9 1.7 0.00 0.00 0.00 1012.8
20211025031503 0 155 2.6 3.5 0.00 0.00 0.00 1012.6
20211025031009 0 151 0.9 1.7 0.00 0.00 0.00 1012.6
20211025030502 0 150 0.9 3.5 0.00 0.00 0.00 1012.4
20211025030002 0 152 2.6 3.5 0.00 0.00 0.00 1012.3
20211025025504 0 167 0.9 1.7 0.00 0.00 0.00 1012.4
20211025025002 0 150 0.9 1.7 0.00 0.00 0.00 1012.3
20211025024502 0 178 2.6 3.5 0.00 0.00 0.00 1012.3
20211025024003 0 163 1.7 1.7 0.00 0.00 0.00 1012.4
20211025023502 0 137 1.7 2.6 0.00 0.00 0.00 1012.5
20211025023014 0 109 0.9 1.7 0.00 0.00 0.00 1012.4
20211025022514 0 181 2.6 3.5 0.00 0.00 0.00 1012.3
20211025022002 0 118 1.7 4.3 0.00 0.00 0.00 1012.2
20211025021502 0 136 1.7 3.5 0.00 0.00 0.00 1012.3
20211025021002 0 104 0.0 0.0 0.00 0.00 0.00 1012.0
20211025020507 0 152 1.7 2.6 0.00 0.00 0.00 1011.8
20211025020002 0 148 1.7 3.5 0.00 0.00 0.00 1011.7
20211025015502 0 101 1.7 1.7 0.00 0.00 0.00 1011.4
20211025015003 0 128 2.6 3.5 0.00 0.00 0.00 1011.5
20211025014502 0 138 3.5 4.3 0.00 0.00 0.00 1011.3
20211025014008 0 131 2.6 3.5 0.00 0.00 0.00 1011.4
20211025013502 0 129 6.1 9.6 0.00 0.00 0.00 1011.6
20211025013002 0 142 4.3 7.8 0.00 0.00 0.00 1011.4
20211025012514 0 196 3.5 6.1 0.00 0.00 0.00 1011.4
20211025012002 0 148 1.7 2.6 0.00 0.00 0.00 1011.5
20211025011502 0 189 5.2 6.1 0.00 0.00 0.00 1011.7
20211025011002 0 174 3.5 4.3 0.00 0.00 0.00 1011.5
20211025010507 0 117 2.6 3.5 0.00 0.00 0.00 1011.4
20211025010004 0 125 2.6 4.3 0.00 0.00 0.00 1011.5
20211025005502 0 145 1.7 2.6 0.00 0.00 0.00 1011.6
20211025005002 0 138 2.6 4.3 0.00 0.00 0.00 1011.6
20211025004502 0 128 0.0 0.0 0.00 0.00 0.00 1011.7
20211025004002 0 143 2.6 3.5 0.00 0.00 0.00 1011.5
20211025003502 0 175 1.7 3.5 0.00 0.00 0.00 1011.5
20211025003006 0 128 2.6 3.5 0.00 0.00 0.00 1011.3
20211025002503 0 142 2.6 3.5 0.00 0.00 0.00 1011.2
20211025002010 0 169 5.2 6.1 0.00 0.00 0.00 1011.4
20211025001502 0 178 2.6 4.3 0.00 0.00 0.00 1011.3
20211025001002 0 34 2.6 3.5 0.00 0.00 0.00 1011.0
20211025000502 0 163 4.3 4.3 0.00 0.00 0.00 1011.2
20211025000002 0 119 1.7 2.6 0.00 0.00 0.00 1011.2
20211024235503 0 77 3.5 5.2 0.00 0.00 0.00 1011.0
20211024235002 0 134 2.6 3.5 0.00 0.00 0.00 1011.3
20211024234502 0 193 1.7 2.6 0.00 0.00 0.00 1011.1
20211024234002 0 88 0.9 2.6 0.00 0.00 0.00 1011.2
20211024233502 0 80 0.9 1.7 0.00 0.00 0.00 1011.1
20211024233002 0 65 2.6 3.5 0.00 0.00 0.00 1010.9
20211024232502 0 125 1.7 3.5 0.00 0.00 0.00 1010.9
20211024232002 0 63 1.7 2.6 0.00 0.00 0.00 1010.7
20211024231502 0 111 0.0 0.0 0.00 0.00 0.00 1010.6
20211024231002 0 187 0.9 1.7 0.00 0.00 0.00 1010.8
20211024230502 0 114 0.0 0.0 0.00 0.00 0.00 1010.9
20211024230002 0 86 1.7 2.6 0.00 0.00 0.00 1010.8
20211024225502 0 69 1.7 3.5 0.00 0.00 0.00 1010.5
20211024225002 0 120 1.7 2.6 0.00 0.00 0.00 1010.7
20211024224502 0 139 0.9 1.7 0.00 0.00 0.00 1010.8
20211024224002 0 155 4.3 5.2 0.00 0.00 0.00 1010.6
20211024223502 0 119 2.6 4.3 0.00 0.00 0.00 1010.6
20211024223002 0 109 1.7 2.6 0.00 0.00 0.00 1010.5
20211024222502 0 153 2.6 4.3 0.00 0.00 0.00 1010.6
20211024222002 0 148 1.7 2.6 0.00 0.00 0.00 1010.7
20211024221502 0 126 2.6 3.5 0.00 0.00 0.00 1010.7
20211024221002 0 26 2.6 4.3 0.00 0.00 0.00 1010.5
20211024220502 0 99 1.7 2.6 0.00 0.00 0.00 1010.6
20211024220002 0 93 0.9 1.7 0.00 0.00 0.00 1010.5
20211024215502 0 167 0.9 2.6 0.00 0.00 0.00 1010.4
20211024215002 0 46 3.5 5.2 0.00 0.00 0.00 1010.4
20211024214503 0 143 2.6 3.5 0.00 0.00 0.00 1010.5
20211024214002 0 51 3.5 5.2 0.00 0.00 0.00 1010.4
20211024213502 0 80 2.6 3.5 0.00 0.00 0.00 1010.3
20211024213003 0 110 0.9 2.6 0.00 0.00 0.00 1010.4
20211024212502 0 93 1.7 1.7 0.00 0.00 0.00 1010.5
20211024212002 0 84 1.7 2.6 0.00 0.00 0.00 1010.3
20211024211502 0 85 2.6 4.3 0.00 0.00 0.00 1010.5
20211024211002 0 66 1.7 2.6 0.00 0.00 0.00 1010.5
20211024210503 0 117 2.6 3.5 0.00 0.00 0.00 1010.7
20211024210002 0 133 2.6 3.5 0.00 0.00 0.00 1010.7
20211024205502 0 94 0.9 1.7 0.00 0.00 0.00 1010.8
20211024205002 0 113 2.6 3.5 0.00 0.00 0.00 1010.7
20211024204502 0 69 1.7 2.6 0.00 0.00 0.00 1010.9
20211024204002 0 68 1.7 2.6 0.00 0.00 0.00 1010.4
20211024203502 0 83 2.6 3.5 0.00 0.00 0.00 1010.5
20211024203003 0 106 1.7 2.6 0.00 0.00 0.00 1010.3
20211024202502 0 87 2.6 4.3 0.00 0.00 0.00 1010.3
20211024202002 0 42 2.6 3.5 0.00 0.00 0.00 1010.6
20211024201502 0 87 0.9 1.7 0.00 0.00 0.00 1010.5
20211024201002 0 88 1.7 2.6 0.00 0.00 0.00 1010.4
20211024200501 0 67 1.7 2.6 0.00 0.00 0.00 1010.6
20211024200002 0 88 0.9 1.7 0.00 0.00 0.00 1010.4
20211024195501 0 93 0.9 1.7 0.00 0.00 0.00 1010.8
20211024195002 0 141 4.3 5.2 0.00 0.00 0.00 1010.8
20211024194502 0 132 1.7 2.6 0.00 0.00 0.00 1010.8
20211024194001 0 164 3.5 5.2 0.00 0.00 0.00 1010.6
20211024193502 0 71 1.7 2.6 0.00 0.00 0.00 1011.0
20211024193003 0 276 0.0 0.0 0.00 0.00 0.00 1011.0
20211024192502 0 155 2.6 4.3 0.00 0.00 0.00 1010.9
20211024192003 0 115 5.2 6.1 0.00 0.00 0.00 1011.2
20211024191502 0 204 5.2 7.8 0.00 0.00 0.00 1010.9
20211024191002 0 153 2.6 5.2 0.00 0.00 0.00 1011.1
20211024190502 0 128 0.9 1.7 0.00 0.00 0.00 1011.2
20211024190003 0 94 1.7 2.6 0.00 0.00 0.00 1011.3
20211024185502 0 207 0.9 3.5 0.00 0.00 0.00 1011.3
20211024185002 0 189 3.5 4.3 0.00 0.00 0.00 1011.5
20211024184502 0 83 2.6 4.3 0.00 0.00 0.00 1011.2
20211024184002 0 145 1.7 2.6 0.00 0.00 0.00 1011.4
20211024183502 0 295 0.9 1.7 0.00 0.00 0.00 1011.5
20211024183002 0 113 2.6 3.5 0.00 0.00 0.00 1011.7
20211024182502 0 253 1.7 3.5 0.00 0.00 0.00 1011.8
20211024182002 0 191 2.6 4.3 0.00 0.00 0.00 1011.8
20211024181502 0 98 3.5 4.3 0.00 0.00 0.00 1011.9
20211024181002 0 179 2.6 3.5 0.00 0.00 0.00 1012.0
20211024180502 0 76 1.7 2.6 0.00 0.00 0.00 1012.2
20211024180002 0 138 2.6 4.3 0.00 0.00 0.00 1012.1
20211024175502 0 151 0.9 2.6 0.00 0.00 0.00 1012.3
20211024175002 0 140 1.7 2.6 0.00 0.00 0.00 1012.3
20211024174502 0 209 3.5 3.5 0.00 0.00 0.00 1012.5
20211024174002 0 59 0.9 2.6 0.00 0.00 0.00 1012.3
20211024173502 0 137 2.6 4.3 0.00 0.00 0.00 1012.4
20211024173002 0 209 3.5 5.2 0.00 0.00 0.00 1012.3
20211024172502 0 74 2.6 3.5 0.00 0.00 0.00 1012.6
20211024172002 0 202 1.7 2.6 0.00 0.00 0.00 1012.6
20211024171502 0 193 2.6 3.5 0.00 0.00 0.00 1012.8
20211024171002 0 212 4.3 7.8 0.00 0.00 0.00 1012.7
20211024170502 0 91 1.7 3.5 0.00 0.00 0.00 1013.0
20211024170002 0 96 2.6 3.5 0.00 0.00 0.00 1013.3
20211024165502 0 186 3.5 7.8 0.00 0.00 0.00 1013.2
20211024165002 0 161 4.3 5.2 0.00 0.00 0.00 1013.1
20211024164502 0 116 1.7 2.6 0.00 0.00 0.00 1013.3
20211024164002 0 221 3.5 4.3 0.00 0.00 0.00 1013.3
20211024163502 0 97 0.9 2.6 0.00 0.00 0.00 1013.4
20211024163002 0 319 0.9 2.6 0.00 0.00 0.00 1013.1
20211024162502 0 57 1.7 3.5 0.00 0.00 0.00 1013.3
20211024162002 0 107 3.5 4.3 0.00 0.00 0.00 1013.3
20211024161502 0 153 2.6 5.2 0.00 0.00 0.00 1013.3
20211024161002 0 143 5.2 7.8 0.00 0.00 0.00 1013.4
20211024160502 0 133 2.6 4.3 0.00 0.00 0.00 1013.4
20211024160002 0 175 5.2 6.1 0.00 0.00 0.00 1013.2
20211024155502 0 176 2.6 3.5 0.00 0.00 0.00 1013.2
20211024155002 0 196 4.3 6.1 0.00 0.00 0.00 1013.2
20211024154502 0 82 2.6 4.3 0.00 0.00 0.00 1013.2
20211024154002 0 134 3.5 4.3 0.00 0.00 0.00 1013.2
20211024153502 0 95 1.7 2.6 0.00 0.00 0.00 1013.0
20211024153002 0 140 4.3 7.8 0.00 0.00 0.00 1013.0
20211024152502 0 102 3.5 4.3 0.00 0.00 0.00 1013.0
20211024152003 0 148 4.3 5.2 0.00 0.00 0.00 1012.9
20211024151502 0 195 5.2 7.8 0.00 0.00 0.00 1012.8
20211024151003 0 171 5.2 7.8 0.00 0.00 0.00 1012.9
20211024150502 0 167 0.9 3.5 0.00 0.00 0.00 1013.0
20211024150002 0 84 3.5 6.1 0.00 0.00 0.00 1012.7
20211024145502 0 275 5.2 7.8 0.00 0.00 0.00 1013.1
20211024145002 0 121 4.3 6.1 0.00 0.00 0.00 1012.8
20211024144502 0 133 5.2 7.8 0.00 0.00 0.00 1012.9
20211024144002 0 157 3.5 4.3 0.00 0.00 0.00 1012.7
20211024143502 0 173 5.2 6.1 0.00 0.00 0.00 1012.7
20211024143002 0 117 2.6 3.5 0.00 0.00 0.00 1012.6
20211024142502 0 109 1.7 2.6 0.00 0.00 0.00 1012.4
20211024142002 0 132 3.5 6.1 0.00 0.00 0.00 1012.2
20211024141502 0 170 3.5 6.1 0.00 0.00 0.00 1012.1
20211024141002 0 94 2.6 5.2 0.00 0.00 0.00 1012.4
20211024140503 0 161 1.7 2.6 0.00 0.00 0.00 1012.0
20211024140002 0 133 7.0 11.3 0.00 0.00 0.00 1012.2
20211024135502 0 154 4.3 7.8 0.00 0.00 0.00 1012.0
20211024135002 0 190 1.7 2.6 0.00 0.00 0.00 1012.2
20211024134502 0 149 5.2 7.8 0.00 0.00 0.00 1011.9
20211024133502 0 147 2.6 3.5 0.00 0.00 0.00 1011.9
20211024133002 0 159 3.5 8.7 0.00 0.00 0.00 1011.9
20211024132502 0 127 3.5 8.7 0.00 0.00 0.00 1011.9
20211024132002 0 75 5.2 8.7 0.00 0.00 0.00 1011.6
20211024131502 0 79 5.2 8.7 0.00 0.00 0.00 1011.4
20211024131002 0 103 1.7 3.5 0.00 0.00 0.00 1011.5
20211024130502 0 198 0.9 3.5 0.00 0.00 0.00 1011.6
20211024130002 0 141 3.5 6.1 0.00 0.00 0.00 1011.7
20211024125502 0 157 3.5 4.3 0.00 0.00 0.00 1011.7
20211024125002 0 83 0.9 1.7 0.00 0.00 0.00 1011.7
20211024124502 0 100 2.6 4.3 0.00 0.00 0.00 1011.6
20211024124002 0 247 2.6 4.3 0.00 0.00 0.00 1011.6
20211024123502 0 127 1.7 2.6 0.00 0.00 0.00 1011.8
20211024123002 0 130 5.2 6.1 0.00 0.00 0.00 1011.7
20211024122502 0 91 7.0 9.6 0.00 0.00 0.00 1011.7
20211024122003 0 171 2.6 5.2 0.00 0.00 0.00 1011.8
20211024121503 0 136 6.1 7.8 0.00 0.00 0.00 1011.4
20211024121002 0 147 6.1 9.6 0.00 0.00 0.00 1011.5
20211024120502 0 70 3.5 6.1 0.00 0.00 0.00 1011.6
20211024120002 0 116 1.7 3.5 0.00 0.00 0.00 1011.7
20211024115502 0 92 4.3 6.1 0.00 0.00 0.00 1011.7
20211024115002 0 182 4.3 6.1 0.00 0.00 0.00 1011.6
20211024114502 0 182 3.5 5.2 0.00 0.00 0.00 1011.6
20211024114002 0 184 3.5 5.2 0.00 0.00 0.00 1011.7
20211024113502 0 98 3.5 5.2 0.00 0.00 0.00 1011.6
20211024113002 0 166 5.2 8.7 0.00 0.00 0.00 1011.9
20211024112502 0 114 7.0 10.4 0.00 0.00 0.00 1011.8
20211024112002 0 72 3.5 4.3 0.00 0.00 0.00 1011.6
20211024111502 0 164 5.2 7.8 0.00 0.00 0.00 1011.8
20211024111002 0 95 4.3 6.1 0.00 0.00 0.00 1011.7
20211024110502 0 143 4.3 5.2 0.00 0.00 0.00 1011.6
20211024110002 0 18 2.6 3.5 0.00 0.00 0.00 1011.6
20211024105502 0 134 2.6 4.3 0.00 0.00 0.00 1011.6
20211024105003 0 254 3.5 4.3 0.00 0.00 0.00 1011.5
20211024104502 0 164 2.6 4.3 0.00 0.00 0.00 1011.4
20211024104002 0 113 0.0 0.0 0.00 0.00 0.00 1011.3
20211024103502 0 89 2.6 3.5 0.00 0.00 0.00 1011.0
20211024103003 0 127 2.6 4.3 0.00 0.00 0.00 1011.1
20211024102502 0 91 1.7 2.6 0.00 0.00 0.00 1011.2
20211024102003 0 142 3.5 4.3 0.00 0.00 0.00 1011.3
20211024101502 0 128 4.3 6.1 0.00 0.00 0.00 1011.3
20211024101002 0 156 3.5 5.2 0.00 0.00 0.00 1011.3
20211024100502 0 64 5.2 7.8 0.00 0.00 0.00 1011.4
20211024100003 0 196 3.5 4.3 0.00 0.00 0.00 1011.4
20211024095502 0 109 2.6 3.5 0.00 0.00 0.00 1011.4
20211024095002 0 160 5.2 6.1 0.00 0.00 0.00 1011.4
20211024094502 0 107 3.5 5.2 0.00 0.00 0.00 1011.4
20211024094002 0 123 5.2 9.6 0.00 0.00 0.00 1011.6
20211024093502 0 162 3.5 7.8 0.00 0.00 0.00 1011.5
20211024093002 0 92 2.6 4.3 0.00 0.00 0.00 1011.7
20211024092502 0 133 3.5 6.1 0.00 0.00 0.00 1011.5
20211024092002 0 111 2.6 3.5 0.00 0.00 0.00 1011.6
20211024091501 0 167 1.7 2.6 0.00 0.00 0.00 1011.7
20211024091002 0 182 3.5 6.1 0.00 0.00 0.00 1011.5
20211024090502 0 97 0.9 1.7 0.00 0.00 0.00 1011.6
20211024090002 0 144 3.5 5.2 0.00 0.00 0.00 1011.5
20211024085502 0 115 3.5 5.2 0.00 0.00 0.00 1011.8
20211024085002 0 83 2.6 3.5 0.00 0.00 0.00 1011.7
20211024084502 0 198 8.7 10.4 0.00 0.00 0.00 1011.8
20211024084002 0 136 5.2 9.6 0.00 0.00 0.00 1012.2
20211024083502 0 108 4.3 5.2 0.00 0.00 0.00 1011.7
20211024083002 0 183 7.8 9.6 0.00 0.00 0.00 1011.8
20211024082502 0 147 4.3 7.8 0.00 0.00 0.00 1011.9
20211024081502 0 219 3.5 6.1 0.00 0.00 0.00 1011.9
20211024081001 0 136 2.6 4.3 0.00 0.00 0.00 1012.0
20211024080502 0 104 6.1 8.7 0.00 0.00 0.00 1011.9
20211024080002 0 140 6.1 9.6 0.00 0.00 0.00 1012.0
20211024075502 0 99 4.3 5.2 0.00 0.00 0.00 1012.1
20211024075002 0 184 3.5 4.3 0.00 0.00 0.00 1011.8
20211024074502 0 191 5.2 6.1 0.00 0.00 0.00 1011.7
20211024074002 0 147 2.6 4.3 0.00 0.00 0.00 1011.9
20211024073502 0 169 2.6 3.5 0.00 0.00 0.00 1011.8
20211024073002 0 130 2.6 3.5 0.00 0.00 0.00 1011.8
20211024072502 0 173 5.2 7.8 0.00 0.00 0.00 1011.9
20211024072002 0 105 5.2 6.1 0.00 0.00 0.00 1011.8
20211024071503 0 186 4.3 6.1 0.00 0.00 0.00 1011.9
20211024071002 0 148 5.2 7.8 0.00 0.00 0.00 1011.8
20211024070502 0 165 3.5 4.3 0.00 0.00 0.00 1012.0
20211024070001 0 146 6.1 7.8 0.00 0.00 2.33 1011.9
20211024065502 0 107 4.3 5.2 0.00 0.00 2.33 1011.9
20211024065002 0 154 3.5 4.3 0.00 0.00 2.33 1012.0
20211024064502 0 131 0.9 1.7 0.00 0.00 2.33 1012.0
20211024064002 0 124 3.5 4.3 0.00 0.00 2.33 1012.2
20211024063503 0 156 5.2 7.8 0.00 0.00 2.33 1012.0
20211024063001 0 162 7.0 9.6 0.00 0.00 2.33 1012.0
20211024062502 0 145 1.7 2.6 0.00 0.00 2.33 1012.0
20211024062002 0 150 6.1 8.7 0.00 0.00 2.33 1012.1
20211024061502 0 146 7.8 9.6 0.00 0.00 2.33 1012.1
20211024061002 0 180 3.5 8.7 0.00 0.00 2.33 1011.9
20211024060502 0 154 4.3 5.2 0.00 0.00 2.33 1011.9
20211024060006 0 162 7.0 10.4 0.00 0.00 2.33 1012.1
20211024055502 0 137 2.6 4.3 0.00 0.00 2.33 1012.1
20211024055002 0 124 5.2 7.8 0.00 0.00 2.33 1012.4
20211024054502 0 147 1.7 4.3 0.00 0.00 2.33 1012.4
20211024054002 0 79 1.7 2.6 0.00 0.00 2.33 1012.1
20211024053502 0 108 4.3 6.1 0.00 0.00 2.33 1012.4
20211024053002 0 94 1.7 4.3 0.00 0.00 2.33 1012.4
20211024052503 0 128 5.2 7.8 0.00 0.00 2.33 1012.6
20211024052002 0 99 2.6 4.3 0.00 0.00 2.33 1012.5
20211024051502 0 123 6.1 7.8 0.00 0.00 2.33 1012.7
20211024051002 0 94 5.2 8.7 0.00 0.00 2.33 1012.4
20211024050502 0 182 4.3 9.6 0.00 0.00 2.33 1012.6
20211024050002 0 113 2.6 4.3 0.00 0.00 2.33 1012.6
20211024045501 0 102 3.5 5.2 0.00 2.33 2.33 1012.6
20211024045002 0 124 5.2 7.8 0.00 2.33 2.33 1012.7
20211024044502 0 114 8.7 12.2 0.00 2.33 2.33 1012.7
20211024044010 0 128 7.0 9.6 0.00 0.00 2.33 1012.8
20211024043503 0 67 7.0 9.6 0.00 0.00 2.33 1012.8
20211024043003 0 231 3.5 4.3 0.00 0.00 2.33 1012.9
20211024042502 0 104 1.7 4.3 0.00 0.00 2.33 1013.3
20211024042002 0 165 4.3 5.2 0.00 0.00 2.33 1013.3
20211024041502 0 173 3.5 5.2 0.00 0.00 2.33 1013.3
20211024041013 0 173 3.5 7.8 0.00 0.00 2.33 1013.4
20211024040509 0 186 5.2 7.8 0.00 0.00 2.33 1013.6
20211024040005 0 168 3.5 7.8 0.00 0.00 2.33 1013.3
20211024035503 0 108 2.6 3.5 0.00 0.00 2.33 1013.3
20211024035003 0 113 0.9 2.6 0.00 0.00 2.33 1013.2
20211024034502 0 174 4.3 6.1 0.00 0.00 2.33 1013.3
20211024034002 0 121 0.0 0.0 0.00 0.00 2.33 1013.5
20211024033514 0 164 7.0 9.6 0.00 0.00 2.33 1013.3